Time;durP1;ratioP1;P1;durP2;ratioP2;P2;SDS_P1;SDS_P2;PMS_P1;PMS_P2;Temp;Humidity;BMP_temperature;BMP_pressure;BME280_temperature;BME280_humidity;BME280_pressure;Samples;Min_cycle;Max_cycle;Signal;HPM_P1;HPM_P2
2021/08/28 03:33:38;;;;;;;10.90;7.10;;;;;;;19.36;59.77;98732.97;8619469;23;20213;-83
2021/08/28 03:36:59;;;;;;;8.77;7.80;;;;;;;19.24;60.27;98721.41;8617883;23;20646;-83
2021/08/28 03:40:21;;;;;;;8.20;7.37;;;;;;;19.56;59.32;98734.97;8631240;23;20177;-83
2021/08/28 03:43:43;;;;;;;9.03;8.13;;;;;;;19.60;59.48;98736.09;8617582;23;20814;-85
2021/08/28 03:47:04;;;;;;;9.57;8.57;;;;;;;19.32;59.95;98731.00;8630469;23;20185;-85
2021/08/28 03:50:28;;;;;;;9.60;8.43;;;;;;;19.31;60.27;98743.03;8615762;23;20182;-85
2021/08/28 03:53:49;;;;;;;10.90;8.27;;;;;;;19.23;60.02;98730.66;8629905;22;20197;-86
2021/08/28 03:57:11;;;;;;;13.23;9.17;;;;;;;19.25;60.01;98744.06;8630028;23;20197;-84
2021/08/28 04:00:33;;;;;;;10.00;8.70;;;;;;;19.42;59.86;98728.34;8615627;23;20202;-85
2021/08/28 04:03:55;;;;;;;10.70;9.47;;;;;;;19.27;60.36;98745.47;8615803;23;20177;-85
2021/08/28 04:07:18;;;;;;;10.63;9.40;;;;;;;19.12;60.10;98725.34;8630007;23;20178;-85
2021/08/28 04:10:39;;;;;;;10.30;9.27;;;;;;;19.31;60.34;98748.50;8616510;23;20206;-85
2021/08/28 04:14:01;;;;;;;11.13;10.03;;;;;;;19.43;59.78;98741.75;8631643;23;20193;-86
2021/08/28 04:17:23;;;;;;;11.53;10.33;;;;;;;19.25;59.89;98714.84;8635826;23;20173;-85
2021/08/28 04:20:45;;;;;;;11.27;10.10;;;;;;;19.17;59.59;98698.88;8621184;23;20262;-86
2021/08/28 04:24:08;;;;;;;11.53;10.40;;;;;;;19.50;59.69;98747.81;8621974;23;20188;-85
2021/08/28 04:27:29;;;;;;;15.53;11.30;;;;;;;19.36;59.74;98745.78;8622018;23;20524;-86
2021/08/28 04:30:51;;;;;;;11.10;9.97;;;;;;;19.28;60.26;98755.31;8620619;23;20726;-86
2021/08/28 04:34:13;;;;;;;12.57;10.37;;;;;;;19.51;59.69;98735.78;8621893;22;20197;-85
2021/08/28 04:37:34;;;;;;;11.57;9.67;;;;;;;19.48;59.98;98749.16;8636288;23;20181;-85
2021/08/28 04:40:57;;;;;;;14.23;11.97;;;;;;;19.44;59.80;98735.19;8620517;22;20215;-85
2021/08/28 04:44:19;;;;;;;14.87;11.60;;;;;;;19.25;60.26;98750.38;8621122;23;20181;-85
2021/08/28 04:47:40;;;;;;;13.00;11.70;;;;;;;19.29;60.01;98726.06;8620854;23;20201;-85
2021/08/28 04:51:02;;;;;;;13.03;11.50;;;;;;;19.57;60.01;98751.13;8633755;23;20193;-85
2021/08/28 04:54:24;;;;;;;15.00;12.37;;;;;;;19.36;60.22;98740.31;8621121;23;20205;-85
2021/08/28 04:57:47;;;;;;;14.20;12.60;;;;;;;18.97;60.85;98736.16;8621464;23;20192;-85
2021/08/28 05:01:08;;;;;;;15.47;11.80;;;;;;;19.21;61.07;98756.63;8621753;23;20202;-85
2021/08/28 05:04:30;;;;;;;14.37;12.30;;;;;;;19.43;60.73;98751.84;8621800;23;20304;-85
2021/08/28 05:07:51;;;;;;;14.30;12.40;;;;;;;19.01;61.67;98757.25;8621334;23;20203;-85
2021/08/28 05:11:13;;;;;;;16.97;13.80;;;;;;;19.12;62.17;98769.09;8618776;23;20212;-85
2021/08/28 05:14:38;;;;;;;18.03;14.20;;;;;;;19.26;62.27;98764.84;8618520;23;20525;-86
2021/08/28 05:17:59;;;;;;;17.00;14.47;;;;;;;19.24;62.19;98780.69;8618225;23;20181;-85
2021/08/28 05:21:21;;;;;;;19.43;14.97;;;;;;;19.17;62.55;98756.28;8631769;23;20538;-86
2021/08/28 05:24:43;;;;;;;17.07;14.53;;;;;;;19.26;62.89;98767.56;8618146;23;20178;-86
2021/08/28 05:28:04;;;;;;;20.03;15.77;;;;;;;19.24;62.84;98783.44;8618074;23;20188;-86
2021/08/28 05:31:27;;;;;;;19.77;16.10;;;;;;;19.09;63.42;98780.53;8615354;23;20210;-86
2021/08/28 05:34:50;;;;;;;20.33;16.80;;;;;;;19.07;63.54;98791.75;8616322;23;20201;-86
2021/08/28 05:38:11;;;;;;;21.73;17.80;;;;;;;18.84;64.20;98772.94;8615719;23;20184;-86
2021/08/28 05:41:33;;;;;;;24.67;19.43;;;;;;;19.05;64.11;98790.34;8629319;23;20675;-86
2021/08/28 05:44:54;;;;;;;21.60;18.00;;;;;;;19.13;64.26;98798.06;8616289;22;20174;-86
2021/08/28 05:48:17;;;;;;;24.33;18.50;;;;;;;18.88;64.70;98790.44;8630129;23;20178;-86
2021/08/28 05:51:39;;;;;;;20.40;18.20;;;;;;;19.23;64.18;98796.25;8630050;23;20208;-86
2021/08/28 05:55:01;;;;;;;23.60;19.33;;;;;;;19.29;63.60;98792.47;8615712;23;20198;-86
2021/08/28 05:58:22;;;;;;;24.07;19.07;;;;;;;19.26;63.78;98790.28;8615359;22;20182;-83
2021/08/28 06:01:44;;;;;;;22.90;18.37;;;;;;;19.26;63.40;98759.38;8615081;23;20209;-86
2021/08/28 06:05:08;;;;;;;22.70;17.43;;;;;;;18.92;64.31;98779.84;8615812;23;20188;-84
2021/08/28 06:08:30;;;;;;;24.47;18.50;;;;;;;19.37;63.73;98792.03;8628295;23;20181;-84
2021/08/28 06:11:51;;;;;;;21.80;16.90;;;;;;;18.87;64.62;98777.88;8614986;23;20553;-85
2021/08/28 06:15:13;;;;;;;21.80;17.93;;;;;;;19.17;64.46;98780.06;8629530;23;20201;-85
2021/08/28 06:18:34;;;;;;;22.00;17.33;;;;;;;19.36;63.65;98792.28;8614632;23;20184;-86
2021/08/28 06:21:57;;;;;;;22.73;18.53;;;;;;;19.43;63.40;98799.19;8614711;23;20650;-85
2021/08/28 06:25:19;;;;;;;20.33;16.40;;;;;;;19.37;63.43;98774.78;8615216;23;20180;-86
2021/08/28 06:28:41;;;;;;;22.73;17.13;;;;;;;19.23;63.82;98779.06;8614074;23;20208;-86
2021/08/28 06:32:02;;;;;;;21.10;17.93;;;;;;;19.18;63.05;98770.78;8614618;23;20535;-86
2021/08/28 06:35:24;;;;;;;21.50;16.90;;;;;;;19.56;63.62;98800.63;8628560;23;20190;-85
2021/08/28 06:38:47;;;;;;;17.70;15.83;;;;;;;19.52;63.09;98783.91;8614074;23;20189;-86
2021/08/28 06:42:09;;;;;;;17.20;14.80;;;;;;;19.15;62.88;98752.16;8628880;22;20194;-88
2021/08/28 06:45:30;;;;;;;19.87;15.40;;;;;;;19.96;61.86;98799.00;8617708;23;20189;-86
2021/08/28 06:48:52;;;;;;;14.47;13.00;;;;;;;20.12;60.19;98795.28;8616884;23;20185;-86
2021/08/28 06:52:14;;;;;;;13.50;12.20;;;;;;;19.77;61.69;98794.22;8630604;22;20674;-86
2021/08/28 06:55:37;;;;;;;12.47;10.53;;;;;;;19.80;61.59;98797.25;8617475;23;20201;-87
2021/08/28 06:58:58;;;;;;;10.57;9.47;;;;;;;19.83;60.52;98784.94;8630381;23;20174;-85
2021/08/28 07:02:20;;;;;;;11.63;10.30;;;;;;;20.05;60.62;98789.16;8632850;22;20545;-86
2021/08/28 07:05:42;;;;;;;10.27;9.37;;;;;;;20.69;58.63;98798.75;8622048;23;20181;-86
2021/08/28 07:09:03;;;;;;;8.83;8.03;;;;;;;20.09;58.47;98800.44;8642622;22;20644;-85
2021/08/28 07:12:26;;;;;;;8.10;7.40;;;;;;;19.94;59.13;98792.94;8629497;22;20284;-86
2021/08/28 07:15:48;;;;;;;8.40;7.60;;;;;;;20.56;57.78;98788.31;8631073;22;20204;-86
2021/08/28 07:19:10;;;;;;;7.67;6.93;;;;;;;19.80;58.28;98780.03;8615875;22;20182;-85
2021/08/28 07:22:31;;;;;;;7.60;6.90;;;;;;;19.86;57.80;98763.34;8630209;22;20198;-87
2021/08/28 07:25:53;;;;;;;9.83;7.40;;;;;;;20.04;57.11;98781.25;8617214;22;20517;-86
2021/08/28 07:29:16;;;;;;;7.63;6.93;;;;;;;20.46;57.17;98790.22;8615808;22;20259;-86
2021/08/28 07:32:38;;;;;;;7.03;6.37;;;;;;;20.27;57.23;98781.66;8633486;22;20201;-86
2021/08/28 07:35:59;;;;;;;5.70;5.10;;;;;;;19.63;57.16;98791.09;8630458;22;20196;-86
2021/08/28 07:39:21;;;;;;;4.90;4.50;;;;;;;19.83;56.76;98788.53;8629222;22;20170;-86
2021/08/28 07:42:43;;;;;;;4.90;4.40;;;;;;;19.61;57.26;98790.56;8616036;22;20552;-86
2021/08/28 07:46:06;;;;;;;4.97;4.57;;;;;;;20.44;56.47;98797.84;8615917;22;20182;-86
2021/08/28 07:49:27;;;;;;;6.10;4.77;;;;;;;20.75;55.22;98800.44;8614974;22;20182;-85
2021/08/28 07:52:49;;;;;;;6.40;5.10;;;;;;;20.77;55.17;98801.81;8619341;22;20535;-85
2021/08/28 07:56:11;;;;;;;7.47;5.17;;;;;;;20.77;55.13;98796.31;8628734;22;20194;-86
2021/08/28 07:59:33;;;;;;;5.90;5.30;;;;;;;20.90;54.38;98795.03;8614353;22;20182;-84
2021/08/28 08:02:56;;;;;;;5.80;5.17;;;;;;;20.35;55.73;98725.53;8615869;22;20204;-85
2021/08/28 08:06:18;;;;;;;6.07;5.47;;;;;;;20.83;55.00;98791.69;8631331;22;20647;-84
2021/08/28 08:09:39;;;;;;;5.63;5.10;;;;;;;20.63;55.51;98788.88;8630677;22;20178;-84
2021/08/28 08:13:01;;;;;;;7.50;5.40;;;;;;;21.06;54.69;98798.59;8630263;22;20209;-84
2021/08/28 08:16:23;;;;;;;5.17;4.67;;;;;;;21.36;53.20;98813.97;8613865;22;20206;-84
2021/08/28 08:19:46;;;;;;;5.10;4.30;;;;;;;21.62;53.31;98796.44;8612825;22;20243;-84
2021/08/28 08:23:07;;;;;;;4.60;4.17;;;;;;;21.89;51.95;98812.63;8614042;22;20202;-83
2021/08/28 08:26:29;;;;;;;4.33;3.93;;;;;;;21.84;52.23;98796.94;8627539;22;20564;-83
2021/08/28 08:29:51;;;;;;;4.47;4.07;;;;;;;21.67;52.90;98796.44;8627081;22;20180;-84
2021/08/28 08:33:12;;;;;;;4.77;4.27;;;;;;;21.53;52.48;98810.97;8627112;22;20206;-83
2021/08/28 08:36:35;;;;;;;4.73;4.00;;;;;;;21.68;51.86;98778.06;8613167;22;20206;-84
2021/08/28 08:39:57;;;;;;;4.40;3.60;;;;;;;21.61;51.44;98800.25;8627170;22;20182;-84
2021/08/28 08:43:19;;;;;;;3.80;3.50;;;;;;;20.95;53.23;98788.72;8627674;22;20193;-82
2021/08/28 08:46:40;;;;;;;3.60;3.30;;;;;;;21.53;50.81;98797.25;8627559;22;20196;-83
2021/08/28 08:50:03;;;;;;;3.00;2.80;;;;;;;21.12;52.38;98803.00;8613730;22;20507;-84
2021/08/28 08:53:29;;;;;;;4.87;3.20;;;;;;;21.31;51.90;98769.28;8623171;22;20550;-83
2021/08/28 08:56:51;;;;;;;4.00;3.60;;;;;;;20.85;51.80;98723.72;8617829;22;20182;-84
2021/08/28 09:00:14;;;;;;;3.40;3.10;;;;;;;21.73;51.52;98792.56;8613388;22;20201;-84
2021/08/28 09:03:36;;;;;;;4.10;3.00;;;;;;;21.45;51.11;98806.03;8616444;22;20632;-84
2021/08/28 09:06:58;;;;;;;3.73;3.20;;;;;;;21.69;50.72;98807.97;8616052;22;20179;-83
2021/08/28 09:10:21;;;;;;;3.60;3.10;;;;;;;21.76;50.37;98803.00;8629623;22;20488;-84
2021/08/28 09:13:43;;;;;;;2.90;2.70;;;;;;;21.54;51.47;98796.16;8630294;22;20170;-84
2021/08/28 09:17:15;;;;;;;3.30;2.63;;;;;;;21.87;50.15;98810.13;8620806;22;20198;-84
2021/08/28 09:20:36;;;;;;;2.77;2.57;;;;;;;22.14;49.51;98812.53;8620716;22;20205;-83
2021/08/28 09:24:03;;;;;;;2.73;2.10;;;;;;;21.94;48.66;98796.94;8617001;22;20486;-84
2021/08/28 09:27:37;;;;;;;2.70;2.50;;;;;;;21.39;48.98;98829.91;8616112;22;20185;-83
2021/08/28 09:31:01;;;;;;;3.73;2.40;;;;;;;21.36;49.50;98813.19;8613672;22;20208;-84
2021/08/28 09:34:25;;;;;;;3.57;2.30;;;;;;;21.88;48.54;98819.19;8620090;22;20182;-83
2021/08/28 09:37:53;;;;;;;2.47;2.10;;;;;;;21.59;48.34;98818.91;8617876;22;20661;-83
2021/08/28 09:41:29;;;;;;;2.57;2.30;;;;;;;21.11;50.52;98809.59;8621485;22;20226;-83
2021/08/28 09:44:53;;;;;;;3.07;2.50;;;;;;;21.62;50.79;98826.63;8631739;22;20204;-83
2021/08/28 09:48:16;;;;;;;2.77;2.57;;;;;;;21.33;52.11;98829.38;8657542;22;20181;-83
2021/08/28 09:51:39;;;;;;;2.63;2.37;;;;;;;20.59;54.17;98828.06;8658188;22;20185;-83
2021/08/28 09:55:01;;;;;;;2.10;2.00;;;;;;;20.95;53.66;98838.91;8658259;22;20639;-83
2021/08/28 09:58:24;;;;;;;2.37;2.17;;;;;;;21.22;53.92;98842.22;8672012;22;20185;-83
2021/08/28 10:01:48;;;;;;;2.13;2.03;;;;;;;20.90;54.56;98841.63;8659610;22;20181;-84
2021/08/28 10:05:11;;;;;;;2.50;2.30;;;;;;;21.08;53.41;98845.75;8658801;22;20569;-83
2021/08/28 10:08:33;;;;;;;2.57;2.23;;;;;;;20.95;54.37;98825.19;8673757;22;20516;-83
2021/08/28 10:11:56;;;;;;;3.47;2.67;;;;;;;20.85;54.72;98833.34;8662099;22;20177;-83
2021/08/28 10:15:18;;;;;;;3.27;2.50;;;;;;;21.08;55.96;98836.44;8661784;22;20257;-82
2021/08/28 10:18:42;;;;;;;2.90;2.50;;;;;;;21.00;55.05;98846.31;8676375;22;20181;-82
2021/08/28 10:22:04;;;;;;;2.80;2.60;;;;;;;21.03;56.10;98843.84;8663145;22;20177;-82
2021/08/28 10:25:28;;;;;;;4.13;2.83;;;;;;;20.71;56.43;98843.19;8663466;22;20200;-82
2021/08/28 10:28:50;;;;;;;3.83;3.53;;;;;;;20.22;58.04;98841.06;8665383;22;20178;-82
2021/08/28 10:32:12;;;;;;;3.70;3.40;;;;;;;20.15;59.74;98840.44;8665212;22;20188;-83
2021/08/28 10:35:35;;;;;;;4.47;3.47;;;;;;;20.24;59.40;98847.91;8664052;22;20208;-82
2021/08/28 10:38:57;;;;;;;3.73;3.30;;;;;;;19.82;59.43;98791.50;8664002;22;20182;-82
2021/08/28 10:42:20;;;;;;;3.37;2.77;;;;;;;19.97;59.80;98838.94;8669561;22;20188;-82
2021/08/28 10:45:41;;;;;;;3.53;3.00;;;;;;;20.19;59.21;98841.56;8663564;22;20209;-82
2021/08/28 10:49:04;;;;;;;3.93;2.77;;;;;;;20.51;58.22;98821.19;8678300;22;20177;-81
2021/08/28 10:52:27;;;;;;;3.07;2.87;;;;;;;20.54;58.16;98844.47;8679379;22;20175;-82
2021/08/28 10:55:50;;;;;;;3.47;3.17;;;;;;;20.52;58.23;98841.19;8667135;22;20235;-83
2021/08/28 10:59:22;;;;;;;3.00;2.80;;;;;;;20.76;57.56;98836.88;8664822;22;20188;-82
2021/08/28 11:02:52;;;;;;;3.27;2.97;;;;;;;21.02;57.86;98852.31;8663838;22;20235;-82
2021/08/28 11:06:21;;;;;;;2.83;2.63;;;;;;;20.65;57.00;98849.75;8667470;22;20200;-82
2021/08/28 11:10:12;;;;;;;2.97;2.77;;;;;;;21.38;55.35;98849.38;8665168;22;20184;-83
2021/08/28 11:13:56;;;;;;;2.67;2.47;;;;;;;21.26;55.77;98843.34;8679066;22;20177;-82
2021/08/28 11:17:18;;;;;;;2.77;2.50;;;;;;;21.25;55.08;98847.16;8665317;22;20205;-82
2021/08/28 11:20:40;;;;;;;2.47;2.07;;;;;;;20.75;54.81;98841.53;8665131;22;20517;-82
2021/08/28 11:24:10;;;;;;;2.73;2.53;;;;;;;21.60;52.85;98830.72;8668643;22;20198;-82
2021/08/28 11:27:44;;;;;;;3.40;2.63;;;;;;;21.19;53.93;98821.66;8667609;22;20258;-82
2021/08/28 11:31:06;;;;;;;4.07;2.63;;;;;;;21.57;54.47;98843.06;8662058;22;20180;-83
2021/08/28 11:34:29;;;;;;;2.20;2.10;;;;;;;21.68;51.56;98842.00;8668794;22;20197;-84
2021/08/28 11:38:04;;;;;;;2.67;2.47;;;;;;;22.23;53.64;98830.91;8675668;22;20378;-83
2021/08/28 11:41:27;;;;;;;2.70;2.50;;;;;;;21.80;51.76;98836.22;8662823;22;20172;-83
2021/08/28 11:44:51;;;;;;;3.10;2.20;;;;;;;22.34;52.86;98827.03;8661336;22;20216;-82
2021/08/28 11:48:14;;;;;;;3.10;2.50;;;;;;;21.79;52.13;98831.84;8661498;22;20925;-82
2021/08/28 11:51:36;;;;;;;2.70;2.50;;;;;;;22.42;52.22;98831.94;8663034;22;20181;-83
2021/08/28 11:54:58;;;;;;;2.53;2.33;;;;;;;21.84;50.39;98831.84;8660735;22;20207;-82
2021/08/28 11:58:20;;;;;;;2.50;2.30;;;;;;;21.90;52.14;98833.47;8661392;22;20197;-83
2021/08/28 12:01:43;;;;;;;2.47;2.20;;;;;;;21.47;50.90;98812.06;8680907;22;20503;-83
2021/08/28 12:05:11;;;;;;;2.27;2.10;;;;;;;22.56;49.67;98829.47;8662497;22;20202;-83
2021/08/28 12:08:32;;;;;;;2.10;1.90;;;;;;;22.68;49.55;98833.53;8675003;22;20180;-84
2021/08/28 12:11:55;;;;;;;2.53;2.20;;;;;;;22.98;49.66;98824.28;8661651;22;20185;-83
2021/08/28 12:15:17;;;;;;;2.40;2.20;;;;;;;23.07;48.90;98836.34;8662431;22;20262;-83
2021/08/28 12:18:40;;;;;;;2.03;1.83;;;;;;;23.56;49.05;98818.66;8661882;22;20667;-82
2021/08/28 12:22:04;;;;;;;2.00;1.80;;;;;;;22.87;45.77;98834.53;8664016;22;20181;-82
2021/08/28 12:25:26;;;;;;;2.00;1.80;;;;;;;22.90;45.89;98825.69;8661942;22;20208;-83
2021/08/28 12:28:48;;;;;;;1.77;1.67;;;;;;;23.01;46.45;98815.47;8662888;22;20180;-83
2021/08/28 12:32:11;;;;;;;1.67;1.57;;;;;;;22.92;43.78;98828.16;8661692;22;20180;-83
2021/08/28 12:35:36;;;;;;;2.13;1.63;;;;;;;23.20;44.37;98821.97;8662310;22;20448;-82
2021/08/28 12:39:08;;;;;;;1.90;1.80;;;;;;;23.12;44.51;98823.38;8679148;22;20186;-82
2021/08/28 12:42:31;;;;;;;1.77;1.67;;;;;;;23.78;43.37;98821.75;8665701;22;20595;-82
2021/08/28 12:45:54;;;;;;;1.93;1.50;;;;;;;24.53;40.95;98812.69;8664804;22;20205;-83
2021/08/28 12:49:18;;;;;;;1.60;1.37;;;;;;;24.54;41.47;98805.25;8665508;22;20188;-82
2021/08/28 12:52:42;;;;;;;1.67;1.57;;;;;;;23.98;41.51;98818.84;8664645;22;20500;-82
2021/08/28 12:56:06;;;;;;;1.40;1.30;;;;;;;23.82;39.32;98800.78;8665556;22;20218;-82
2021/08/28 12:59:28;;;;;;;1.03;1.03;;;;;;;24.33;40.14;98801.94;8664907;22;20487;-83
2021/08/28 13:02:50;;;;;;;1.13;1.10;;;;;;;24.56;38.23;98806.59;8664153;22;20183;-83
2021/08/28 13:06:19;;;;;;;1.30;1.20;;;;;;;24.18;39.59;98802.09;8679566;22;20279;-82
2021/08/28 13:09:57;;;;;;;1.30;1.20;;;;;;;24.58;38.49;98800.81;8664349;22;20195;-82
2021/08/28 13:13:18;;;;;;;1.20;1.20;;;;;;;24.47;39.13;98794.56;8668958;22;20463;-82
2021/08/28 13:16:53;;;;;;;1.30;1.30;;;;;;;22.72;41.38;98811.78;8666524;22;20208;-82
2021/08/28 13:20:15;;;;;;;1.97;1.33;;;;;;;22.52;42.04;98809.13;8679552;22;20162;-82
2021/08/28 13:23:37;;;;;;;0.87;0.87;;;;;;;23.74;38.16;98779.41;8667228;22;20377;-82
2021/08/28 13:27:00;;;;;;;1.40;1.23;;;;;;;24.07;39.62;98794.25;8666246;22;20187;-82
2021/08/28 13:30:25;;;;;;;1.90;1.70;;;;;;;24.21;40.25;98808.94;8665990;22;20200;-82
2021/08/28 13:33:57;;;;;;;1.00;1.00;;;;;;;24.20;39.79;98802.59;8666676;22;20201;-82
2021/08/28 13:37:19;;;;;;;1.47;1.37;;;;;;;24.90;39.08;98801.75;8666872;22;20182;-82
2021/08/28 13:40:41;;;;;;;1.13;1.10;;;;;;;25.51;38.93;98808.00;8679229;22;20548;-83
2021/08/28 13:44:04;;;;;;;1.40;1.30;;;;;;;23.95;39.76;98799.34;8669534;22;20541;-82
2021/08/28 13:47:26;;;;;;;1.50;1.30;;;;;;;24.55;38.24;98793.09;8668739;22;20190;-82
2021/08/28 13:50:48;;;;;;;1.00;1.00;;;;;;;24.30;38.71;98713.50;8682492;22;20183;-82
2021/08/28 13:54:10;;;;;;;1.87;1.10;;;;;;;24.01;38.72;98784.41;8670347;22;20198;-83
2021/08/28 13:57:32;;;;;;;1.20;1.10;;;;;;;24.29;38.55;98781.56;8670638;22;20203;-82
2021/08/28 14:00:55;;;;;;;1.43;1.33;;;;;;;24.06;40.65;98787.09;8682675;22;20175;-83
2021/08/28 14:04:18;;;;;;;1.20;0.87;;;;;;;24.24;39.02;98781.63;8685312;22;20670;-83
2021/08/28 14:07:39;;;;;;;1.10;1.10;;;;;;;23.74;39.75;98770.31;8684470;22;20235;-83
2021/08/28 14:11:01;;;;;;;0.80;0.80;;;;;;;23.99;39.01;98779.16;8670464;22;20188;-82
2021/08/28 14:14:23;;;;;;;1.10;1.10;;;;;;;23.56;39.45;98787.56;8671717;22;20202;-82
2021/08/28 14:17:46;;;;;;;1.40;1.00;;;;;;;23.35;40.12;98770.41;8686365;22;20211;-83
2021/08/28 14:21:07;;;;;;;1.13;1.13;;;;;;;23.53;40.78;98779.88;8670424;22;20188;-83
2021/08/28 14:24:29;;;;;;;1.27;0.90;;;;;;;23.84;39.49;98776.53;8672840;22;20209;-82
2021/08/28 14:27:51;;;;;;;1.17;1.07;;;;;;;22.92;39.60;98781.41;8686807;22;20174;-82
2021/08/28 14:31:13;;;;;;;2.30;1.20;;;;;;;23.01;40.44;98764.03;8673090;22;20185;-81
2021/08/28 14:34:36;;;;;;;1.10;1.10;;;;;;;23.50;40.18;98777.69;8684227;22;20212;-82
2021/08/28 14:37:57;;;;;;;1.43;1.00;;;;;;;23.71;39.57;98779.16;8703804;22;20207;-82
2021/08/28 14:41:20;;;;;;;2.10;1.20;;;;;;;23.90;39.03;98777.34;8681526;22;20620;-82
2021/08/28 14:44:41;;;;;;;1.10;1.10;;;;;;;23.26;39.39;98790.56;8664591;22;20752;-82
2021/08/28 14:48:03;;;;;;;1.20;1.17;;;;;;;23.44;39.25;98781.59;8659660;22;20177;-82
2021/08/28 14:51:26;;;;;;;1.33;1.23;;;;;;;23.42;39.73;98790.16;8662005;22;20196;-82
2021/08/28 14:54:48;;;;;;;0.90;0.90;;;;;;;23.71;39.79;98787.44;8678021;22;20201;-82
2021/08/28 14:58:10;;;;;;;1.10;1.10;;;;;;;23.59;40.45;98773.22;8660989;22;20205;-82
2021/08/28 15:01:31;;;;;;;1.63;1.43;;;;;;;23.12;41.13;98762.03;8664064;22;20177;-82
2021/08/28 15:04:53;;;;;;;2.83;1.33;;;;;;;23.31;41.00;98785.84;8661743;22;20217;-82
2021/08/28 15:08:16;;;;;;;1.30;1.20;;;;;;;23.28;40.82;98789.16;8658883;22;20182;-81
2021/08/28 15:11:39;;;;;;;1.43;1.33;;;;;;;23.37;42.04;98795.69;8660277;22;20631;-82
2021/08/28 15:15:01;;;;;;;1.80;1.20;;;;;;;23.16;41.40;98776.84;8660828;22;20661;-81
2021/08/28 15:18:22;;;;;;;1.67;1.30;;;;;;;23.07;42.10;98795.09;8659959;22;20211;-82
2021/08/28 15:21:44;;;;;;;1.70;1.60;;;;;;;22.99;41.97;98792.91;8673178;22;20624;-81
2021/08/28 15:25:08;;;;;;;1.33;1.30;;;;;;;23.17;42.16;98795.03;8660018;22;20535;-83
2021/08/28 15:28:30;;;;;;;1.63;1.30;;;;;;;23.39;41.56;98800.91;8658227;22;20178;-82
2021/08/28 15:31:52;;;;;;;1.17;1.10;;;;;;;22.78;42.42;98805.97;8659624;22;20186;-82
2021/08/28 15:35:13;;;;;;;2.07;1.90;;;;;;;22.74;43.02;98804.91;8674901;22;20197;-82
2021/08/28 15:38:36;;;;;;;1.47;1.37;;;;;;;22.55;42.91;98803.88;8659504;22;20206;-81
2021/08/28 15:41:59;;;;;;;1.20;1.20;;;;;;;23.10;42.64;98808.25;8659216;22;20544;-82
2021/08/28 15:45:20;;;;;;;1.50;1.40;;;;;;;23.15;42.97;98811.81;8658185;22;20245;-80
2021/08/28 15:48:43;;;;;;;2.60;2.10;;;;;;;22.59;45.01;98804.16;8672703;22;20466;-80
2021/08/28 15:52:06;;;;;;;4.90;2.33;;;;;;;22.95;44.31;98798.16;8663727;22;20196;-80
2021/08/28 15:55:28;;;;;;;2.23;2.13;;;;;;;23.10;44.57;98808.25;8662633;22;20196;-80
2021/08/28 15:58:51;;;;;;;3.47;2.47;;;;;;;22.20;47.46;98817.72;8661599;22;20205;-80
2021/08/28 16:02:12;;;;;;;2.87;2.57;;;;;;;22.56;45.90;98812.97;8661999;22;20188;-80
2021/08/28 16:05:34;;;;;;;2.80;2.30;;;;;;;22.60;45.87;98805.81;8674749;22;20193;-80
2021/08/28 16:08:55;;;;;;;2.70;2.50;;;;;;;23.05;44.92;98817.38;8674304;22;20189;-80
2021/08/28 16:12:17;;;;;;;3.00;2.80;;;;;;;22.92;45.68;98804.25;8660454;22;20188;-80
2021/08/28 16:15:40;;;;;;;3.77;3.00;;;;;;;22.61;46.77;98800.00;8660154;22;20205;-81
2021/08/28 16:19:02;;;;;;;3.17;2.87;;;;;;;22.42;47.23;98817.41;8660168;22;20205;-80
2021/08/28 16:22:23;;;;;;;3.03;2.83;;;;;;;22.45;47.13;98794.88;8663475;22;20180;-80
2021/08/28 16:25:49;;;;;;;3.13;2.83;;;;;;;22.66;46.55;98807.44;8665373;22;20215;-80
2021/08/28 16:29:11;;;;;;;3.20;2.90;;;;;;;22.63;47.14;98816.22;8664867;22;20171;-80
2021/08/28 16:32:34;;;;;;;3.50;3.20;;;;;;;22.30;47.82;98805.91;8671523;22;20189;-80
2021/08/28 16:35:56;;;;;;;3.73;3.13;;;;;;;22.38;46.72;98819.06;8666163;22;20211;-80
2021/08/28 16:39:18;;;;;;;2.90;2.70;;;;;;;22.19;47.22;98813.34;8665878;22;20252;-80
2021/08/28 16:42:40;;;;;;;3.27;2.97;;;;;;;22.10;47.38;98805.97;8666466;22;20180;-80
2021/08/28 16:46:01;;;;;;;3.43;3.00;;;;;;;22.37;45.91;98820.16;8664258;22;20544;-80
2021/08/28 16:49:24;;;;;;;2.70;2.50;;;;;;;22.42;46.24;98809.16;8665342;22;20178;-81
2021/08/28 16:52:46;;;;;;;2.90;2.70;;;;;;;22.44;46.46;98810.56;8665966;22;20186;-80
2021/08/28 16:56:07;;;;;;;3.10;2.53;;;;;;;22.40;46.61;98819.59;8664509;22;20675;-80
2021/08/28 16:59:29;;;;;;;3.40;3.10;;;;;;;22.10;47.57;98811.44;8663959;22;20209;-80
2021/08/28 17:02:50;;;;;;;4.60;4.20;;;;;;;21.70;48.17;98798.63;8664881;22;20185;-80
2021/08/28 17:06:15;;;;;;;3.90;3.50;;;;;;;21.54;49.20;98824.41;8664072;22;20208;-80
2021/08/28 17:09:37;;;;;;;4.10;3.70;;;;;;;21.43;48.71;98787.09;8663831;22;20182;-80
2021/08/28 17:12:59;;;;;;;3.47;3.17;;;;;;;21.60;48.54;98798.59;8663951;22;20173;-80
2021/08/28 17:16:20;;;;;;;3.27;3.07;;;;;;;21.88;48.23;98828.25;8663032;22;20558;-80
2021/08/28 17:19:42;;;;;;;3.40;3.10;;;;;;;21.99;48.22;98820.81;8663110;22;20197;-80
2021/08/28 17:23:05;;;;;;;3.20;2.90;;;;;;;21.64;49.23;98823.56;8664673;22;20260;-80
2021/08/28 17:26:27;;;;;;;3.40;3.10;;;;;;;21.75;48.70;98833.47;8666400;22;20267;-80
2021/08/28 17:29:48;;;;;;;3.60;3.30;;;;;;;22.03;48.42;98836.47;8666124;22;20650;-80
2021/08/28 17:33:10;;;;;;;3.60;3.30;;;;;;;21.76;49.04;98837.88;8680125;22;20183;-80
2021/08/28 17:36:32;;;;;;;4.37;3.50;;;;;;;21.76;49.56;98846.94;8679464;22;20201;-80
2021/08/28 17:39:55;;;;;;;3.80;3.50;;;;;;;21.40;50.21;98815.09;8664231;22;20207;-80
2021/08/28 17:43:16;;;;;;;4.00;3.10;;;;;;;21.84;49.70;98851.06;8678968;22;20181;-80
2021/08/28 17:46:38;;;;;;;6.90;6.20;;;;;;;21.92;49.05;98855.97;8664785;22;20209;-80
2021/08/28 17:50:00;;;;;;;25.40;17.80;;;;;;;21.81;49.43;98844.19;8664791;22;20182;-80
2021/08/28 17:53:21;;;;;;;5.43;4.83;;;;;;;21.56;49.70;98852.41;8665090;22;20177;-80
2021/08/28 17:56:44;;;;;;;5.73;4.70;;;;;;;21.06;50.84;98857.03;8664914;22;20497;-80
2021/08/28 18:00:07;;;;;;;6.23;4.70;;;;;;;21.25;50.90;98847.16;8665270;22;20181;-80
2021/08/28 18:03:30;;;;;;;5.63;4.53;;;;;;;21.32;50.85;98855.94;8679068;22;20170;-80
2021/08/28 18:06:52;;;;;;;14.17;10.80;;;;;;;21.08;50.94;98843.84;8663752;22;20177;-80
2021/08/28 18:10:14;;;;;;;4.83;4.43;;;;;;;21.02;50.99;98872.34;8665353;22;20652;-80
2021/08/28 18:13:38;;;;;;;4.40;4.00;;;;;;;21.22;51.09;98871.59;8664304;22;20366;-80
2021/08/28 18:16:59;;;;;;;4.13;3.80;;;;;;;20.70;52.13;98825.06;8664292;22;20181;-80
2021/08/28 18:20:21;;;;;;;4.60;3.83;;;;;;;21.08;52.08;98875.91;8664620;22;20189;-80
2021/08/28 18:23:43;;;;;;;6.40;5.80;;;;;;;20.96;52.28;98884.41;8664109;22;20181;-80
2021/08/28 18:27:05;;;;;;;4.57;4.17;;;;;;;21.05;51.01;98885.50;8663773;22;20181;-80
2021/08/28 18:30:28;;;;;;;4.67;4.27;;;;;;;20.39;52.96;98889.06;8677589;22;20180;-80
2021/08/28 18:33:50;;;;;;;4.27;3.97;;;;;;;19.99;54.09;98883.28;8664139;22;20443;-80
2021/08/28 18:37:11;;;;;;;4.80;4.40;;;;;;;19.58;55.29;98884.06;8664385;22;20208;-80
2021/08/28 18:40:34;;;;;;;4.37;3.97;;;;;;;19.76;55.24;98910.22;8663868;22;20181;-80
2021/08/28 18:43:55;;;;;;;4.90;4.40;;;;;;;20.01;54.36;98905.78;8665008;22;20211;-80
2021/08/28 18:47:18;;;;;;;4.30;3.90;;;;;;;19.88;54.66;98891.72;8664780;22;20162;-80
2021/08/28 18:50:40;;;;;;;4.40;4.03;;;;;;;20.19;53.98;98916.31;8664909;22;20192;-80
2021/08/28 18:54:02;;;;;;;4.57;4.20;;;;;;;19.94;54.38;98898.88;8664703;22;20201;-80
2021/08/28 18:57:23;;;;;;;4.27;3.93;;;;;;;20.24;53.53;98918.25;8665335;22;20211;-80
2021/08/28 19:00:45;;;;;;;4.30;3.90;;;;;;;19.98;54.46;98919.16;8665429;22;20181;-80
2021/08/28 19:04:08;;;;;;;4.07;3.77;;;;;;;19.87;55.35;98926.44;8665697;22;20209;-80
2021/08/28 19:07:29;;;;;;;4.10;3.50;;;;;;;20.20;54.37;98936.31;8665589;22;20177;-80
2021/08/28 19:10:51;;;;;;;5.63;3.27;;;;;;;20.23;53.92;98928.38;8679556;22;20169;-80
2021/08/28 19:14:13;;;;;;;4.10;3.77;;;;;;;19.99;54.21;98937.22;8666591;22;20503;-80
2021/08/28 19:17:34;;;;;;;4.43;4.03;;;;;;;19.66;55.28;98934.75;8668543;22;20207;-80
2021/08/28 19:20:59;;;;;;;5.70;4.37;;;;;;;19.13;57.46;98945.66;8680445;22;20193;-80